• Join FlightAware (Why Join?)
  • Login
  • US Flag 
10:35AM EDT


 

Airport Tracker/Info


-or-


 

Live Flight TrackerFlight Track Log ✈ TMC491 ✈ 22-Apr-2013 ✈ KFMY - KMOP

Flight Track Log - Related Links

Times and Time Zones

All times are in EDT time to prevent confusion due to time zone crossing. See the TMC491 flight status page for this flight to view local times or setup timezone preferences in your user account.

Time Position Orientation Groundspeed Altitude Reporting Facility
EDT Latitude Longitude Course Direction KTS MPH feet Rate Location/Type
12:45PM 26.7014 -81.7719 25° Northeast 244 281 6,300  Level Miami Center
12:46PM 26.7642 -81.7678 North 231 266 8,800 2,460 Climbing Miami Center
12:47PM 26.8269 -81.7611 North 225 259 11,300 2,160 Climbing Miami Center
12:48PM 26.8961 -81.7569 North 225 259 13,200 1,680 Climbing Miami Center
12:49PM 27.1856 -81.7896 343° North  Level FlightAware Approximate
12:49PM 26.9736 -81.7486 North 253 291 14,700  Level Miami Center
12:50PM 27.0589 -81.7567 355° North 283 326 16,200 1,500 Climbing Miami Center
12:51PM 27.1456 -81.7861 343° North 303 349 17,800 1,620 Climbing Miami Center
12:52PM 27.2342 -81.8178 342° North 321 369 19,500 1,500 Climbing Miami Center
12:53PM 27.3231 -81.8475 343° North 327 376 20,900 1,320 Climbing Miami Center
12:54PM 27.4139 -81.8769 344° North 327 376 22,200 1,200 Climbing Miami Center
12:55PM 27.4983 -81.9089 341° North 343 395 23,400 1,140 Climbing Miami Center
12:56PM 27.5953 -81.9411 344° North 354 407 24,500 1,200 Climbing Miami Center
12:57PM 27.7069 -81.9697 347° North 368 423 25,900 1,080 Climbing Miami Center
12:59PM 27.9656 -82.0278 349° North 366 421 28,400 960 Climbing Jacksonville Center
01:00PM 28.0742 -82.0506 350° North 368 423 29,300 900 Climbing Jacksonville Center
01:01PM 28.1828 -82.0731 350° North 381 438 30,300 900 Climbing Jacksonville Center
01:02PM 28.2914 -82.0981 349° North 392 451 31,200 720 Climbing Jacksonville Center
01:03PM 28.4000 -82.1208 350° North 392 451 31,800 540 Climbing Jacksonville Center
01:04PM 28.5108 -82.1461 349° North 392 451 32,300 540 Climbing Jacksonville Center
01:05PM 28.6236 -82.1689 350° North 392 451 32,900 540 Climbing Jacksonville Center
01:06PM 28.7367 -82.1964 348° North 397 457 33,400 480 Climbing Jacksonville Center
01:07PM 28.8536 -82.2194 350° North 407 468 33,900 480 Climbing Jacksonville Center
01:08PM 28.9664 -82.2447 349° North 413 475 34,400 480 Climbing Jacksonville Center
01:09PM 29.0814 -82.2700 349° North 413 475 34,900 480 Climbing Jacksonville Center
01:10PM 29.1942 -82.2956 349° North 413 475 35,400 480 Climbing Jacksonville Center
01:11PM 29.3092 -82.3186 350° North 413 475 35,900 540 Climbing Jacksonville Center
01:12PM 29.4175 -82.3036 North 418 481 36,500 540 Climbing Jacksonville Center
01:13PM 29.5344 -82.2814 North 423 487 37,000 480 Climbing Jacksonville Center
01:14PM 29.6511 -82.2664 North 423 487 37,500 420 Climbing Jacksonville Center
01:15PM 29.7681 -82.2608 North 423 487 37,900 360 Climbing Jacksonville Center
01:16PM 29.8789 -82.2864 349° North 416 479 38,300 360 Climbing Jacksonville Center
01:17PM 29.9897 -82.3122 349° North 403 464 38,700 300 Climbing Jacksonville Center
01:18PM 30.1025 -82.3356 350° North 403 464 39,000 120 Climbing Jacksonville Center
01:19PM 30.2111 -82.3661 346° North 403 464 39,000  Level Jacksonville Center
01:20PM 30.3239 -82.3969 347° North 403 464 39,000  Level Jacksonville Center
01:21PM 30.4347 -82.4253 348° North 413 475 39,000  Level Jacksonville Center
01:22PM 30.5497 -82.4536 348° North 413 475 39,000  Level Jacksonville Center
01:23PM 30.6647 -82.4844 347° North 413 475 39,000  Level Jacksonville Center
01:24PM 30.7775 -82.5106 349° North 413 475 39,000  Level Jacksonville Center
01:25PM 30.8925 -82.5414 347° North 413 475 39,000 60 Level Jacksonville Center
01:26PM 31.0072 -82.5725 347° North 413 475 39,200 300 Climbing Jacksonville Center
01:27PM 31.1203 -82.6039 347° North 413 475 39,600 360 Climbing Jacksonville Center
01:28PM 31.2331 -82.6303 349° North 413 475 40,000 180 Climbing Jacksonville Center
01:29PM 31.3519 -82.6567 349° North 404 465 40,000  Level Jacksonville Center
01:31PM 31.5097 -82.6992 347° North 412 474 40,000  Level Atlanta Center
01:32PM 31.6206 -82.7269 348° North 406 467 40,000  Level Atlanta Center
01:33PM 31.7358 -82.7569 348° North 411 473 40,000  Level Atlanta Center
01:34PM 31.8486 -82.7847 348° North 411 473 40,000  Level Atlanta Center
01:35PM 31.9575 -82.8150 347° North 411 473 40,000  Level Atlanta Center
01:36PM 32.0686 -82.8453 347° North 411 473 40,000  Level Atlanta Center
01:37PM 32.1836 -82.8731 348° North 411 473 40,000  Level Atlanta Center
01:38PM 32.2967 -82.9011 348° North 411 473 40,000  Level Atlanta Center
01:39PM 32.4094 -82.9317 347° North 411 473 40,000  Level Atlanta Center
01:40PM 32.5267 -82.9647 347° North 411 473 40,000  Level Atlanta Center
01:41PM 32.6375 -82.9931 348° North 411 473 40,000  Level Atlanta Center
01:42PM 32.7528 -83.0261 346° North 416 479 40,000  Level Atlanta Center
01:43PM 32.8697 -83.0569 348° North 405 466 40,000  Level Atlanta Center
01:44PM 32.9847 -83.0878 347° North 405 466 40,000  Level Atlanta Center
01:45PM 33.1000 -83.1189 347° North 416 479 40,000  Level Atlanta Center
01:46PM 33.2128 -83.1475 348° North 416 479 40,000  Level Atlanta Center
01:47PM 33.3258 -83.1786 347° North 416 479 40,000  Level Atlanta Center
01:48PM 33.4428 -83.2072 348° North 416 479 40,000  Level Atlanta Center
01:49PM 33.5558 -83.2386 347° North 416 479 40,000  Level Atlanta Center
01:51PM 33.7836 -83.3014 347° North 417 480 40,000  Level Atlanta Center
01:52PM 33.8967 -83.3306 348° North 417 480 40,000  Level Atlanta Center
01:53PM 34.0136 -83.3647 346° North 417 480 40,000  Level Atlanta Center
01:54PM 34.1161 -83.3914 348° North 412 474 40,000  Level Atlanta Center
01:55PM 34.2331 -83.4233 347° North 417 480 40,000  Level Atlanta Center
01:56PM 34.3439 -83.4525 348° North 417 480 40,000  Level Atlanta Center
01:57PM 34.4608 -83.4869 346° North 417 480 40,100 120 Climbing Atlanta Center
01:58PM 34.5736 -83.5192 347° North 417 480 40,300 180 Climbing Atlanta Center
01:59PM 34.6803 -83.5511 346° North 412 474 40,500 240 Climbing Atlanta Center
02:00PM 34.7931 -83.5783 349° North 412 474 40,800 240 Climbing Atlanta Center
02:01PM 34.9039 -83.6108 346° North 402 463 41,000 60 Climbing Atlanta Center
02:02PM 35.0083 -83.6406 347° North 391 450 41,000  Level Atlanta Center
02:03PM 35.1169 -83.6731 346° North 391 450 41,000  Level Atlanta Center
02:04PM 35.2256 -83.7006 348° North 391 450 41,000  Level Atlanta Center
02:05PM 35.3381 -83.7358 346° North 391 450 41,000  Level Atlanta Center
02:06PM 35.4489 -83.7661 347° North 396 456 41,000  Level Atlanta Center
02:07PM 35.5594 -83.7961 348° North 396 456 41,000  Level Atlanta Center
02:08PM 35.6700 -83.8292 346° North 401 461 41,000  Level Atlanta Center
02:09PM 35.7828 -83.8622 347° North 401 461 41,000  Level Atlanta Center
02:10PM 35.8956 -83.8928 348° North 406 467 41,000  Level Atlanta Center
02:11PM 36.0103 -83.9078 354° North 413 475 41,000  Level Atlanta Center
02:12PM 36.1394 -83.9178 356° North 418 481 41,000  Level Atlanta Center
02:13PM 36.3064 -83.9336 356° North 421 484 41,000  Level Indianapolis Center
02:14PM 36.4242 -83.9461 355° North 424 488 41,000  Level Indianapolis Center
02:15PM 36.5583 -83.9589 356° North 425 489 41,000  Level Indianapolis Center
02:16PM 36.6781 -83.9708 355° North 428 493 41,000  Level Indianapolis Center
02:17PM 36.7981 -83.9839 355° North 430 495 41,000  Level Indianapolis Center
02:18PM 36.9192 -83.9961 355° North 432 497 41,000  Level Indianapolis Center
02:19PM 37.0408 -84.0072 356° North 434 499 41,000  Level Indianapolis Center
02:20PM 37.1617 -84.0203 355° North 434 499 41,000  Level Indianapolis Center
02:21PM 37.3019 -84.0333 356° North 432 497 41,000  Level Indianapolis Center
02:22PM 37.4236 -84.0456 355° North 435 501 41,000  Level Indianapolis Center
02:23PM 37.5444 -84.0583 355° North 437 503 41,000  Level Indianapolis Center
02:24PM 37.6650 -84.0717 355° North 433 498 41,000  Level Indianapolis Center
02:25PM 37.7864 -84.0833 356° North 434 499 41,000  Level Indianapolis Center
02:27PM 37.9097 -84.0953 356° North 440 506 41,000  Level Indianapolis Center
02:28PM 38.0506 -84.1111 355° North 437 503 41,000  Level Indianapolis Center
02:29PM 38.1742 -84.1219 356° North 445 512 41,000  Level Indianapolis Center
02:30PM 38.2953 -84.1353 355° North 439 505 41,000  Level Indianapolis Center
02:31PM 38.4181 -84.1481 355° North 439 505 41,000  Level Indianapolis Center
02:32PM 38.5403 -84.1611 355° North 440 506 41,000  Level Indianapolis Center
02:33PM 38.6694 -84.1739 356° North 439 505 41,000  Level Indianapolis Center
02:34PM 38.7922 -84.1861 356° North 437 503 41,000  Level Indianapolis Center
02:35PM 38.9158 -84.1992 355° North 439 505 41,000  Level Indianapolis Center
02:36PM 39.0386 -84.2125 355° North 438 504 41,000  Level Indianapolis Center
02:37PM 39.1628 -84.2253 355° North 441 507 41,000  Level Indianapolis Center
02:38PM 39.2864 -84.2406 355° North 441 507 41,000  Level Indianapolis Center
02:39PM 39.4100 -84.2536 355° North 441 507 41,000  Level Indianapolis Center
02:40PM 39.5536 -84.2686 355° North 438 504 41,000  Level Indianapolis Center
02:41PM 39.6775 -84.2831 355° North 440 506 41,000 -300 Level Indianapolis Center
02:42PM 39.8019 -84.2956 356° North 442 509 40,500 -600 Descending Indianapolis Center
02:43PM 39.9283 -84.3092 355° North 447 514 39,800 -540 Descending Indianapolis Center
02:44PM 40.0494 -84.3217 355° North 438 504 39,400 -540 Descending Indianapolis Center
02:45PM 40.1644 -84.3350 355° North 421 484 38,800 -660 Descending Indianapolis Center
02:46PM 40.2794 -84.3486 355° North 412 474 38,100 -780 Descending Indianapolis Center
02:47PM 40.3964 -84.3614 355° North 414 476 37,300 -540 Descending Indianapolis Center
02:48PM 40.5147 -84.3742 355° North 418 481 37,000 -180 Descending Indianapolis Center
02:49PM 40.6344 -84.3886 355° North 425 489 37,000  Level Indianapolis Center
02:50PM 40.7744 -84.4036 355° North 427 491 37,000  Level Indianapolis Center
02:51PM 40.8958 -84.4172 355° North 430 495 37,000  Level Indianapolis Center
02:52PM 40.9758 -84.4256 356° North 421 484 37,000 -240 Level Cleveland Center
02:53PM 41.0986 -84.4383 356° North 421 484 36,600 -540 Descending Cleveland Center
02:54PM 41.2189 -84.4536 355° North 427 491 36,000 -300 Descending Cleveland Center
02:55PM 41.3375 -84.4664 355° North 427 491 36,000  Level Cleveland Center
02:56PM 41.4539 -84.4789 355° North 422 486 36,000  Level Cleveland Center
02:57PM 41.5653 -84.5133 347° North 422 486 36,000 -180 Level Cleveland Center
02:58PM 41.6783 -84.5564 344° North 422 486 35,700 -960 Descending Cleveland Center
02:59PM 41.7875 -84.5994 344° North 417 480 34,100 -1,440 Descending Cleveland Center
03:00PM 41.8914 -84.6086 356° North 394 453 32,900 -1,200 Descending Cleveland Center
03:01PM 41.9989 -84.5736 14° North 376 433 31,700 -1,380 Descending Cleveland Center
03:02PM 42.1050 -84.5214 20° North 381 438 30,200 -1,440 Descending Cleveland Center
03:03PM 42.1942 -84.4764 20° North 386 444 28,900 -1,500 Descending Cleveland Center
03:04PM 42.3053 -84.4578 North 386 444 27,300 -1,560 Descending Cleveland Center
03:05PM 42.4108 -84.4842 350° North 377 434 25,800 -1,800 Descending Cleveland Center
03:06PM 42.5142 -84.5044 352° North 377 434 23,700 -2,100 Descending Cleveland Center
03:07PM 42.6075 -84.5244 351° North 364 419 21,700 -2,100 Descending Cleveland Center
03:08PM 42.7108 -84.5453 352° North 346 398 19,500 -1,980 Descending Cleveland Center
03:09PM 42.8064 -84.5625 352° North 340 391 17,800 -1,860 Descending Cleveland Center
03:10PM 42.8972 -84.5853 350° North 340 391 15,800 -2,040 Descending Cleveland Center
03:11PM 42.9864 -84.6025 352° North 335 386 13,800 -1,860 Descending Cleveland Center
03:12PM 43.0753 -84.6225 351° North 322 371 12,100 -1,440 Descending Cleveland Center
03:13PM 43.1600 -84.6394 352° North 317 365 11,000 -900 Descending Cleveland Center
03:14PM 43.2450 -84.6564 352° North 311 358 10,300 -1,140 Descending Cleveland Center
03:15PM 43.3236 -84.6758 350° North 295 339 8,800 -1,620 Descending Cleveland Center
03:16PM 43.3897 -84.6917 350° North 279 321 7,100 -1,860 Descending Cleveland Center
03:17PM 43.4622 -84.7050 352° North 267 307 5,100 -1,980 Descending Cleveland Center
03:18PM 43.5317 -84.7411 339° North 249 287 3,200 -1,200 Descending Cleveland Center
03:19PM 43.5781 -84.7872 324° Northwest 226 260 2,800 -720 Descending Cleveland Center
03:20PM 43.6150 -84.7986 347° North 165 190 1,800 -1,020 Descending Cleveland Center
03:22PM 43.6167 -84.7333 346° North  Level FlightAware Approximate
03:29PM 43.6216 -84.7373 346° North  Level Estimated